Date,TemperatureHighF,TemperatureAvgF,TemperatureLowF,DewpointHighF,DewpointAvgF,DewpointLowF,HumidityHigh,HumidityAvg,HumidityLow,PressureMaxIn,PressureMinIn,WindSpeedMaxMPH,WindSpeedAvgMPH,GustSpeedMaxMPH,PrecipitationSumIn
2013-1-1,21,17,14,19,16,13,100,97,89,0.00,40.00,1,0,5,0.00
2013-1-2,19,17,14,19,17,12,100,99,93,0.00,40.00,1,0,6,0.00
2013-1-3,28,18,14,24,17,14,100,94,73,0.00,40.00,0,0,5,0.00
2013-1-4,43,28,17,34,26,17,100,93,60,0.00,40.00,4,0,10,0.00
2013-1-5,26,21,17,26,21,17,100,100,100,0.00,40.00,0,0,2,0.00
2013-1-6,42,31,24,34,30,24,100,93,68,0.00,40.00,5,1,15,0.00
2013-1-7,46,39,33,42,34,25,100,83,58,0.00,40.00,15,8,42,0.13
2013-1-8,42,38,33,42,35,25,100,89,65,0.00,40.00,11,3,31,0.93
2013-1-9,40,34,26,36,24,16,100,67,46,0.00,40.00,9,4,23,0.10
2013-1-10,37,27,21,21,16,11,89,65,44,0.00,40.00,4,1,15,0.01
2013-1-11,31,22,16,16,13,7,100,69,46,0.00,40.00,4,0,16,0.01
2013-1-12,30,20,16,19,11,6,100,70,54,0.00,40.00,1,0,8,0.00
2013-1-13,34,20,14,13,7,1,70,57,37,0.00,40.00,1,0,5,0.00
2013-1-14,43,27,20,24,12,3,85,55,25,0.00,40.00,2,0,14,0.00
2013-1-15,52,35,27,27,21,0,85,60,14,0.00,40.00,1,0,7,0.03
2013-1-16,60,44,33,22,16,-4,53,35,11,0.00,40.00,3,0,8,0.23
2013-1-17,45,36,21,23,18,13,91,49,38,0.00,40.00,0,0,4,0.05
2013-1-18,57,47,39,22,14,-2,38,27,11,0.00,40.00,2,0,6,0.19
2013-1-19,60,45,36,25,13,-2,44,29,13,0.00,40.00,0,0,6,0.11
2013-1-20,44,34,18,22,15,8,100,46,27,0.00,40.00,1,0,6,0.02
2013-1-21,46,28,15,23,15,11,100,60,25,0.00,40.00,2,0,9,0.01
2013-1-22,25,19,14,23,18,13,100,97,86,0.00,40.00,0,0,4,0.00
2013-1-23,33,24,19,33,24,19,100,100,99,0.00,40.00,3,0,7,0.00
2013-1-24,43,35,28,39,34,28,100,97,79,0.00,40.00,3,0,11,0.14
2013-1-25,45,39,33,44,39,33,100,100,96,0.00,40.00,4,1,16,0.12
2013-1-26,45,32,28,34,28,22,100,85,48,0.00,40.00,6,2,18,0.04
2013-1-27,41,31,27,32,25,20,100,81,46,0.00,40.00,3,1,14,0.01
2013-1-28,36,32,28,33,29,25,100,89,72,0.00,40.00,10,4,30,0.00
2013-1-29,40,36,32,34,30,27,100,80,62,0.00,40.00,16,10,43,0.34
2013-1-30,39,36,32,39,36,32,100,100,94,0.00,40.00,11,5,26,0.14
2013-1-31,52,40,33,36,33,30,100,78,50,0.00,40.00,2,0,7,0.01
2013-2-1,51,38,32,35,31,26,100,77,47,0.00,40.00,1,0,7,0.01
2013-2-2,50,38,32,35,31,26,100,76,46,0.00,40.00,2,0,7,0.01
2013-2-3,50,41,34,32,24,17,72,52,37,0.00,40.00,7,2,21,0.00
2013-2-4,49,40,33,31,25,16,66,54,37,0.00,40.00,5,0,17,0.00
2013-2-5,48,38,33,37,29,16,100,75,37,0.00,40.00,8,4,25,0.04
2013-2-6,44,35,31,33,28,21,100,80,56,0.00,40.00,5,1,16,0.02
2013-2-7,43,33,26,32,24,18,100,71,39,0.00,40.00,7,2,18,0.02
2013-2-8,46,32,26,20,15,10,68,48,31,0.00,40.00,2,0,9,0.00
2013-2-9,48,34,27,29,21,12,100,59,42,0.00,40.00,7,1,17,0.00
2013-2-10,50,38,29,29,21,16,100,53,32,0.00,40.00,3,0,11,0.00
2013-2-11,51,36,28,30,25,19,100,65,40,0.00,40.00,7,2,23,0.00
2013-2-12,48,40,35,38,30,22,100,68,43,0.00,40.00,12,4,27,0.00
2013-2-13,47,38,32,37,32,27,100,81,50,0.00,40.00,7,3,22,0.03
2013-2-14,53,39,32,38,32,27,100,78,53,0.00,40.00,4,0,10,0.01
2013-2-15,54,42,35,40,36,31,100,81,50,0.00,40.00,2,0,7,0.00
2013-2-16,46,39,30,38,30,22,100,71,54,0.00,40.00,8,3,21,0.00
2013-2-17,45,32,24,24,20,17,77,63,42,0.00,40.00,11,2,28,0.06
2013-2-18,39,32,27,22,21,19,79,66,50,0.00,40.00,3,1,12,0.01
2013-2-19,41,31,24,31,23,19,100,75,47,0.00,40.00,3,0,10,0.00
2013-2-20,42,32,27,31,23,19,100,71,43,0.00,40.00,6,1,12,0.00
2013-2-21,35,31,28,32,29,23,100,92,66,0.00,40.00,4,2,19,0.05
2013-2-22,34,32,29,34,32,29,100,100,98,0.00,40.00,14,7,39,0.13
2013-2-23,42,31,26,29,24,19,100,75,47,0.00,40.00,11,4,31,0.05
2013-2-24,46,34,25,29,24,19,90,67,40,0.00,40.00,4,1,14,0.31
2013-2-25,34,31,25,34,30,21,100,96,76,0.00,40.00,9,5,29,0.05
2013-2-26,45,32,23,30,25,18,100,78,50,0.00,40.00,4,1,16,0.26
2013-2-27,48,37,29,37,29,22,100,74,49,0.00,40.00,8,3,20,0.44
2013-2-28,51,42,36,46,41,35,100,97,80,0.00,40.00,8,3,23,0.80
2013-3-1,58,45,40,45,40,34,100,84,50,0.00,40.00,5,1,20,0.01
2013-3-2,53,43,32,42,34,25,100,73,45,0.00,40.00,7,2,21,0.01
2013-3-3,46,34,25,28,17,6,88,52,20,0.00,40.00,6,2,18,0.00
2013-3-4,46,33,25,18,14,9,62,47,26,0.00,40.00,3,1,9,0.00
2013-3-5,38,32,29,31,21,15,100,65,51,0.00,40.00,3,1,9,0.00
2013-3-6,34,32,30,34,31,29,100,95,83,0.00,40.00,7,1,25,0.00
2013-3-7,50,34,26,31,26,22,100,74,41,0.00,40.00,4,1,11,0.13
2013-3-8,51,37,29,27,22,16,74,55,38,0.00,40.00,4,1,13,0.25
2013-3-9,57,46,32,22,16,5,53,31,22,0.00,40.00,4,1,10,0.01
2013-3-10,56,45,37,38,28,1,84,55,20,0.00,40.00,8,4,23,0.01
2013-3-11,52,43,38,42,37,30,100,81,57,0.00,40.00,4,1,14,0.00
2013-3-12,60,45,39,41,37,27,100,75,42,0.00,40.00,12,3,27,0.00
2013-3-13,63,50,39,39,36,26,94,58,35,0.00,40.00,7,1,21,0.00
2013-3-14,64,50,40,41,32,13,100,55,20,0.00,40.00,8,2,30,0.00
2013-3-15,57,45,37,41,36,32,100,74,44,0.00,40.00,5,1,18,0.00
2013-3-16,45,37,29,39,34,28,100,90,63,0.00,40.00,11,4,28,0.09
2013-3-17,38,31,28,29,22,17,98,69,49,0.00,40.00,14,6,38,0.18
2013-3-18,49,36,29,26,21,18,76,57,37,0.00,40.00,6,2,21,0.01
2013-3-19,40,34,29,34,23,17,100,67,51,0.00,40.00,3,0,9,0.20
2013-3-20,44,37,27,43,35,23,100,94,44,0.00,40.00,12,5,42,0.95
2013-3-21,41,31,27,29,26,20,100,83,54,0.00,40.00,13,7,30,0.28
2013-3-22,43,30,21,26,21,17,100,73,40,0.00,40.00,6,2,21,0.26
2013-3-23,41,30,23,23,18,14,78,61,44,0.00,40.00,2,0,8,0.03
2013-3-24,42,33,26,23,20,16,72,57,40,0.00,40.00,5,1,13,0.01
2013-3-25,51,38,29,27,21,16,72,52,39,0.00,40.00,3,1,10,0.00
2013-3-26,48,41,33,33,28,21,95,61,45,0.00,40.00,1,0,8,0.00
2013-3-27,53,43,36,37,33,29,81,68,51,0.00,40.00,3,1,11,0.00
2013-3-28,52,48,43,44,42,38,100,80,59,0.00,40.00,3,0,8,0.08
2013-3-29,60,48,40,46,42,36,100,80,52,0.00,40.00,2,0,8,0.05
2013-3-30,66,52,43,42,38,-100,82,64,39,0.00,40.00,4,1,11,0.01
2013-3-31,64,52,41,37,33,28,67,50,35,0.00,40.00,5,2,12,0.00
2013-4-1,69,50,43,46,38,33,99,66,38,0.00,40.00,6,2,17,0.00
2013-4-2,45,42,40,40,36,33,100,82,65,0.00,40.00,2,0,11,0.00
2013-5-2,70,63,54,32,28,23,38,29,17,0.00,40.00,3,1,172,0.00
2013-5-3,71,60,51,36,33,27,50,37,25,0.00,40.00,6,2,16,0.00
2013-5-4,67,59,51,34,30,27,46,35,23,0.00,40.00,15,8,32,0.00
2013-5-5,69,60,53,36,32,28,48,35,25,0.00,40.00,12,7,26,0.00
2013-5-6,78,66,54,42,36,31,49,35,19,0.00,40.00,6,3,16,0.00
2013-5-7,79,68,57,48,42,31,59,40,29,0.00,40.00,5,2,12,0.00
2013-5-8,79,66,52,52,44,35,66,47,33,0.00,40.00,4,1,11,0.00
2013-5-9,83,69,55,49,43,34,64,41,22,0.00,40.00,5,2,13,0.00
2013-5-10,85,73,63,47,37,-100,44,30,23,0.00,40.00,6,2,17,0.00
2013-5-11,86,73,61,53,44,-100,55,38,28,0.00,40.00,6,2,15,0.00
2013-5-12,72,66,57,52,47,40,70,51,35,0.00,40.00,9,5,22,0.00
2013-5-13,60,52,42,48,43,36,95,70,51,0.00,40.00,9,4,27,0.02
2013-5-14,65,50,37,39,33,27,92,56,25,0.00,40.00,6,2,15,0.01
2013-5-15,58,48,42,45,37,30,86,64,45,0.00,40.00,5,1,14,0.01
2013-5-16,58,44,43,48,27,-100,97,82,59,0.00,40.00,6,2,17,0.09
2013-5-17,58,48,42,44,34,-100,95,72,47,0.00,40.00,9,4,22,0.11
2013-5-18,57,47,40,42,38,33,83,71,57,0.00,40.00,6,3,19,0.02
2013-5-19,63,50,42,43,39,36,89,67,41,0.00,40.00,4,2,11,0.00
2013-5-20,73,58,43,44,36,33,74,48,24,0.00,40.00,10,2,22,0.00
2013-5-21,55,45,34,41,35,28,90,69,39,0.00,40.00,12,6,27,0.10
2013-5-22,42,36,33,39,32,27,97,87,76,0.00,40.00,11,4,30,0.19
2013-5-23,50,42,34,41,35,32,95,79,61,0.00,40.00,6,3,16,0.13
2013-5-24,53,44,35,39,36,34,99,78,55,0.00,40.00,10,4,22,0.10
2013-5-25,61,47,38,45,38,33,98,71,41,0.00,40.00,4,2,14,0.06
2013-5-26,62,50,43,49,43,37,100,81,47,0.00,40.00,6,2,18,0.24
2013-5-27,56,46,42,54,43,37,99,92,78,0.00,40.00,5,2,15,0.46
2013-5-28,57,50,43,44,41,38,90,73,52,0.00,40.00,6,3,17,0.04
2013-5-29,56,46,40,45,43,38,100,88,57,0.00,40.00,10,4,26,0.79
2013-5-30,58,46,36,39,36,32,92,68,46,0.00,40.00,9,4,25,0.11
2013-5-31,66,51,38,44,39,34,91,68,41,0.00,40.00,4,2,13,0.00
2013-6-1,73,58,48,46,42,26,79,56,37,0.00,40.00,6,2,17,0.00
2013-6-2,68,56,48,46,41,33,77,59,36,0.00,40.00,7,3,17,0.00
2013-6-3,73,60,46,45,38,25,72,48,26,0.00,40.00,4,2,12,0.00
2013-6-4,76,64,52,44,37,17,50,37,23,0.00,40.00,4,2,14,0.00
2013-6-5,83,70,59,49,42,34,47,36,26,0.00,40.00,4,2,13,0.00
2013-6-6,85,70,59,52,43,34,62,40,22,0.00,40.00,4,2,12,0.00
2013-6-7,77,66,56,52,39,25,54,38,25,0.00,40.00,8,3,25,0.00
2013-6-8,82,66,54,43,38,31,55,38,21,0.00,40.00,6,3,18,0.00
2013-6-9,77,63,52,47,36,18,70,42,14,0.00,40.00,10,3,21,0.00
2013-6-10,74,59,48,39,32,26,55,37,19,0.00,40.00,5,2,15,0.00
2013-6-11,58,50,43,38,35,32,74,58,43,0.00,40.00,10,4,24,0.00
2013-6-12,59,48,40,40,36,34,87,65,43,0.00,40.00,8,3,21,0.00
2013-6-13,58,48,41,39,37,35,82,68,47,0.00,40.00,9,4,27,0.00
2013-6-14,69,54,41,46,40,34,80,61,34,0.00,40.00,4,2,12,0.00
2013-6-15,77,64,50,49,40,33,69,44,26,0.00,40.00,5,3,12,0.00
2013-6-16,77,65,57,53,45,40,69,51,28,0.00,40.00,8,3,21,0.01
2013-6-17,73,61,51,48,44,40,69,55,37,0.00,40.00,7,3,19,0.01
2013-6-18,63,53,45,48,41,37,93,66,38,0.00,40.00,5,3,20,0.00
2013-6-19,59,50,44,40,38,34,75,63,49,0.00,40.00,8,4,24,0.00
2013-6-20,60,49,42,40,38,36,83,67,47,0.00,40.00,9,4,26,0.00
2013-6-21,61,60,58,43,43,42,57,54,51,0.00,40.00,2,1,8,0.01
2013-6-22,73,66,48,44,42,40,82,43,32,0.00,40.00,4,2,12,0.00
2013-6-23,66,58,52,56,49,41,99,74,50,0.00,40.00,2,1,8,0.29
2013-6-24,62,54,50,52,47,43,100,79,58,0.00,40.00,7,3,20,0.31
2013-6-25,58,53,49,55,50,46,100,91,80,0.00,40.00,5,2,15,0.59
2013-6-26,65,56,50,57,51,47,96,82,63,0.00,40.00,5,1,12,0.03
2013-6-27,74,63,55,60,55,49,87,74,51,0.00,40.00,4,1,11,0.01
2013-6-28,86,71,58,61,57,53,86,63,39,0.00,40.00,3,2,10,0.00
2013-6-29,86,74,65,62,56,40,78,55,35,0.00,40.00,4,1,11,0.00
2013-6-30,89,77,63,59,54,40,66,45,35,0.00,40.00,6,3,15,0.00
2013-7-1,94,81,71,61,55,52,58,41,27,0.00,40.00,4,3,15,0.00
2013-7-2,95,83,71,62,54,41,61,40,24,0.00,40.00,6,2,16,0.00
2013-7-3,86,75,64,52,39,16,50,31,11,0.00,40.00,6,3,16,0.00
2013-7-4,79,64,57,44,37,28,51,37,26,0.00,40.00,6,3,12,0.00
2013-7-5,64,53,47,44,40,34,74,61,48,0.00,40.00,4,1,8,0.00
2013-7-6,79,62,49,48,42,35,61,50,29,0.00,40.00,4,2,10,0.00
2013-7-7,85,75,59,51,45,35,54,37,21,0.00,40.00,6,3,18,0.00
2013-7-8,84,73,59,49,43,37,44,34,25,0.00,40.00,4,2,11,0.00
2013-7-9,89,79,62,50,45,35,43,31,23,0.00,40.00,3,2,12,0.00
2013-7-10,86,74,62,49,34,-100,49,26,18,0.00,40.00,7,4,19,0.00
2013-7-11,78,63,55,41,33,18,51,35,11,0.00,40.00,4,2,15,0.00
2013-7-12,74,63,51,35,29,22,42,29,16,0.00,40.00,8,4,18,0.00
2013-7-13,76,62,48,38,30,25,53,32,18,0.00,40.00,5,2,13,0.00
2013-7-14,85,72,57,44,32,24,34,24,17,0.00,40.00,4,2,12,0.00
2013-7-15,81,74,60,42,37,23,37,27,23,0.00,40.00,6,3,17,0.00
2013-7-16,82,74,67,47,42,39,41,32,22,0.00,40.00,6,3,15,0.00
2013-7-17,85,75,62,48,44,39,58,36,23,0.00,40.00,6,4,17,0.00
2013-7-18,89,78,59,41,36,24,48,24,15,0.00,40.00,4,2,12,0.00
2013-7-19,91,86,71,41,36,27,24,17,14,0.00,40.00,4,3,12,0.00
2013-7-20,93,82,71,41,32,-100,25,17,11,0.00,40.00,4,3,14,0.00
2013-7-21,91,83,70,41,38,35,32,21,15,0.00,40.00,7,4,20,0.00
2013-7-22,92,80,64,42,37,28,29,22,16,0.00,40.00,5,2,11,0.00
2013-7-23,93,85,69,37,34,19,21,16,11,0.00,40.00,6,2,14,0.00
2013-7-24,93,83,66,39,32,24,25,16,12,0.00,40.00,5,2,13,0.00
2013-7-25,93,82,63,38,27,17,21,14,7,0.00,40.00,6,2,14,0.00
2013-7-26,93,82,67,37,27,10,30,15,6,0.00,40.00,6,3,15,0.00
2013-7-27,84,70,60,38,33,18,40,27,17,0.00,40.00,6,2,14,0.00
2013-7-28,80,69,59,41,34,28,33,28,21,0.00,40.00,5,3,15,0.00
2013-7-29,86,68,55,42,35,27,42,31,12,0.00,40.00,4,2,12,0.00
2013-7-30,87,74,62,45,40,28,43,30,16,0.00,40.00,3,2,11,0.00
2013-7-31,78,72,64,42,38,28,39,29,23,0.00,40.00,6,2,17,0.00
2013-8-1,67,58,51,52,46,44,80,65,49,0.00,40.00,8,4,24,0.00
2013-8-2,73,54,49,52,46,43,81,73,45,0.00,40.00,3,1,10,0.00
2013-8-3,80,65,52,51,48,45,78,57,32,0.00,40.00,5,1,11,0.00
2013-8-4,85,71,60,51,48,46,68,47,27,0.00,40.00,5,2,13,0.00
2013-8-5,91,76,64,50,47,39,58,38,18,0.00,40.00,6,2,14,0.00
2013-8-6,91,84,71,42,38,28,33,20,14,0.00,40.00,6,4,17,0.00
2013-8-7,87,76,66,45,36,27,45,25,13,0.00,40.00,7,4,16,0.00
2013-8-8,86,73,62,51,46,41,52,39,27,0.00,40.00,4,2,12,0.00
2013-8-9,86,70,56,56,50,44,96,55,24,0.00,40.00,12,3,40,0.97
2013-8-10,72,64,55,60,53,45,90,67,53,0.00,40.00,7,2,21,0.97
2013-8-11,78,66,54,53,50,43,88,58,35,0.00,40.00,4,2,13,0.04
2013-8-12,82,68,56,52,47,39,67,49,31,0.00,40.00,5,2,13,0.00
2013-8-13,84,70,55,49,43,-100,73,42,23,0.00,40.00,5,2,12,0.00
2013-8-14,86,72,62,50,45,39,57,38,29,0.00,40.00,8,3,21,0.00
2013-8-15,83,66,59,55,45,-100,76,50,30,0.00,40.00,8,2,18,0.00
2013-8-16,80,67,59,59,53,-100,88,65,46,0.00,40.00,6,2,14,0.00
2013-8-17,81,66,58,56,49,-100,83,56,40,0.00,40.00,7,2,19,0.00
2013-8-18,85,69,58,54,47,41,71,49,28,0.00,40.00,6,2,16,0.00
2013-8-19,81,67,59,47,39,-100,52,39,30,0.00,40.00,6,2,18,0.00
2013-8-20,82,68,56,45,40,35,64,40,20,0.00,40.00,5,2,13,0.00
2013-8-21,82,70,61,43,38,34,44,32,20,0.00,40.00,4,2,13,0.00
2013-8-22,78,68,58,56,44,28,92,43,26,0.00,40.00,8,2,16,0.08
2013-8-23,78,65,54,56,51,45,95,64,37,0.00,40.00,8,4,20,0.20
2013-8-24,77,59,51,49,44,-100,81,60,34,0.00,40.00,6,2,16,0.01
2013-8-25,68,57,51,59,50,42,99,80,56,0.00,40.00,4,1,21,0.21
2013-8-26,73,59,50,56,50,45,98,74,42,0.00,40.00,8,3,20,0.06
2013-8-27,71,57,51,51,48,46,86,75,49,0.00,40.00,3,1,9,0.01
2013-8-28,81,73,65,56,52,49,62,49,35,0.00,40.00,3,2,11,0.00
2013-8-29,78,66,61,58,54,49,83,67,43,0.00,40.00,8,4,23,0.00
2013-8-30,77,64,56,56,53,49,98,71,40,0.00,40.00,6,2,20,0.04
2013-8-31,82,68,58,53,49,-100,82,55,31,0.00,40.00,4,2,11,0.01
2013-9-1,87,73,63,50,46,42,60,39,26,0.00,40.00,4,2,12,0.00
2013-9-2,82,65,57,52,50,48,75,61,31,0.00,40.00,3,2,10,0.00
2013-9-3,78,65,57,54,51,48,79,61,37,0.00,40.00,4,2,12,0.00
2013-9-4,82,67,57,52,48,44,73,53,32,0.00,40.00,4,2,13,0.00
2013-9-5,73,58,51,54,47,42,90,69,50,0.00,40.00,12,3,31,0.02
2013-9-6,64,55,50,52,49,44,98,82,63,0.00,40.00,8,4,23,0.29
2013-9-7,73,60,51,52,48,-100,93,70,47,0.00,40.00,4,1,11,0.06
2013-9-8,77,64,52,52,48,44,87,60,31,0.00,40.00,4,2,11,0.00
2013-9-9,85,74,61,50,46,40,59,38,25,0.00,40.00,4,1,11,0.00
2013-9-10,83,73,63,55,47,40,64,42,26,0.00,40.00,6,3,16,0.00
2013-9-11,86,73,63,49,46,43,52,39,25,0.00,40.00,5,3,13,0.00
2013-9-12,89,79,67,51,46,41,45,32,22,0.00,40.00,3,1,9,0.00
2013-9-13,88,76,65,53,46,38,50,36,26,0.00,40.00,4,2,11,0.00
2013-9-14,88,79,69,49,44,-100,43,31,21,0.00,40.00,5,3,12,0.00
2013-9-15,83,67,55,51,48,43,75,53,33,0.00,40.00,10,3,23,0.01
2013-9-16,66,56,50,47,45,43,89,68,45,0.00,40.00,6,3,18,0.01
2013-9-17,63,53,48,46,42,36,86,68,42,0.00,40.00,9,3,22,0.00
2013-9-18,50,48,47,40,39,37,77,70,61,0.00,40.00,4,2,14,0.00
2013-9-19,71,58,47,38,36,33,68,46,25,0.00,40.00,4,2,12,0.00
2013-9-20,75,58,50,47,38,33,90,49,25,0.00,40.00,11,4,27,0.07
2013-9-21,66,51,46,50,43,-100,97,80,42,0.00,40.00,5,3,18,0.27
2013-9-22,52,48,45,50,42,38,95,82,68,0.00,40.00,9,4,27,0.25
2013-9-23,54,48,43,50,44,38,98,87,76,0.00,40.00,6,2,18,0.11
2013-9-24,54,46,41,47,42,36,98,86,58,0.00,40.00,4,1,15,0.11
2013-9-25,54,44,39,40,36,32,94,74,54,0.00,40.00,3,1,12,0.01
2013-9-26,57,46,39,39,34,31,75,63,46,0.00,40.00,4,2,11,0.00
2013-9-27,54,47,42,47,39,33,98,74,54,0.00,40.00,5,3,15,0.25
2013-9-28,57,50,40,53,47,-100,99,92,79,0.00,40.00,7,4,23,1.55
2013-9-29,46,43,40,46,42,39,99,95,84,0.00,40.00,9,4,23,1.91
2013-9-30,48,42,39,44,39,34,95,87,76,0.00,40.00,12,8,30,1.23
2013-10-1,41,38,35,37,34,31,91,85,76,0.00,40.00,2,1,13,0.24
2013-10-2,50,40,36,39,34,30,96,81,63,0.00,40.00,5,1,12,0.03
2013-10-3,54,43,33,38,34,29,96,72,50,0.00,40.00,3,1,9,0.00
2013-10-4,59,48,41,37,33,30,74,58,37,0.00,40.00,3,1,9,0.00
2013-10-5,66,54,42,34,32,28,71,45,26,0.00,40.00,4,1,10,0.00
2013-10-6,69,59,48,38,34,29,57,40,26,0.00,40.00,4,2,12,0.00
2013-10-7,52,47,41,42,36,25,93,67,36,0.00,40.00,8,4,24,0.04
2013-10-8,47,41,35,42,38,32,97,87,74,0.00,40.00,10,3,23,0.18
2013-10-9,46,41,37,38,35,30,89,78,68,0.00,40.00,5,2,15,0.01
2013-10-10,58,47,39,40,35,28,79,64,47,0.00,40.00,6,2,16,0.00
2013-10-11,52,43,37,40,36,32,97,78,52,0.00,40.00,4,1,11,0.00
2013-10-12,43,40,38,41,36,-100,97,89,74,0.00,40.00,3,1,8,0.07
2013-10-13,53,44,38,41,37,33,95,75,55,0.00,40.00,2,1,9,0.01
2013-10-14,54,46,38,38,33,28,77,63,44,0.00,40.00,5,2,11,0.00
2013-10-15,55,45,37,33,30,28,71,57,38,0.00,40.00,4,2,9,0.00
2013-10-16,58,48,42,36,32,29,62,54,43,0.00,40.00,4,1,10,0.00
2013-10-17,58,50,43,35,33,29,69,53,38,0.00,40.00,3,1,10,0.00
2013-10-18,59,49,42,34,31,28,64,51,33,0.00,40.00,4,2,9,0.00
2013-10-19,69,57,46,42,34,-100,59,44,32,0.00,40.00,2,1,5,0.00
2013-10-20,70,59,49,42,35,32,55,42,26,0.00,40.00,2,1,7,0.00
2013-10-21,70,60,52,44,37,33,61,45,30,0.00,40.00,3,1,8,0.00
2013-10-22,69,57,49,43,38,34,64,50,32,0.00,40.00,3,1,7,0.00
2013-10-23,63,52,45,44,40,36,78,63,48,0.00,40.00,3,2,7,0.00
2013-10-24,62,52,45,45,42,38,81,68,52,0.00,40.00,2,1,5,0.00
2013-10-25,65,55,47,47,42,39,78,64,48,0.00,40.00,2,0,6,0.00
2013-10-26,60,50,44,45,41,-100,91,72,56,0.00,40.00,3,1,8,0.00
2013-10-27,49,44,40,42,36,22,92,76,37,0.00,40.00,7,3,22,0.08
2013-10-28,42,37,31,38,24,-100,92,64,45,0.00,40.00,10,6,26,0.07
2013-10-29,46,37,30,23,18,16,61,49,31,0.00,40.00,4,1,11,0.00
2013-10-30,54,43,37,29,25,20,58,48,36,0.00,40.00,3,1,8,0.00
2013-10-31,56,47,42,45,38,28,95,74,56,0.00,40.00,6,3,21,0.00
2013-11-1,58,48,40,40,34,30,81,60,41,0.00,40.00,3,1,10,0.00
2013-11-2,49,40,32,44,34,-100,97,82,57,0.00,40.00,11,5,29,0.55
2013-11-3,41,33,31,33,30,27,97,87,65,0.00,40.00,9,4,22,0.22
2013-11-4,37,33,30,36,32,29,98,96,93,0.00,40.00,5,1,10,0.06
2013-11-5,48,41,37,45,40,36,99,96,87,0.00,40.00,5,2,15,0.14
2013-11-6,45,42,40,44,42,40,99,99,98,0.00,40.00,1,0,6,0.38
2013-11-7,45,40,37,45,38,32,99,93,79,0.00,40.00,11,3,27,0.63
2013-11-8,41,37,35,38,36,31,99,94,83,0.00,40.00,5,2,11,0.30
2013-11-9,42,38,35,39,34,-100,98,88,82,0.00,40.00,1,0,4,0.01
2013-11-10,48,41,36,43,39,34,98,92,80,0.00,40.00,3,0,7,0.00
2013-11-11,38,37,36,38,37,36,99,99,98,0.00,40.00,5,3,10,0.04
2013-11-12,57,43,38,48,41,38,99,93,71,0.00,40.00,4,1,11,0.02
2013-11-13,51,43,38,40,38,35,95,83,66,0.00,40.00,3,1,9,0.01
2013-11-14,43,38,32,36,30,22,95,75,48,0.00,40.00,3,1,11,0.01
2013-11-15,41,34,31,33,29,24,96,82,57,0.00,40.00,14,3,36,0.19
2013-11-16,39,34,32,35,30,-100,98,88,65,0.00,40.00,14,7,37,0.67
2013-11-17,39,36,33,38,35,32,99,98,94,0.00,40.00,4,2,13,0.48
2013-11-18,46,41,37,41,38,35,97,90,75,0.00,40.00,6,3,22,0.14
2013-11-19,49,42,33,45,39,26,99,89,73,0.00,40.00,5,3,22,0.77
2013-11-20,33,28,19,31,15,-1,97,62,31,0.00,40.00,5,2,13,0.03
2013-11-21,32,23,17,8,-1,-8,53,35,25,0.00,40.00,3,2,8,0.00
2013-11-22,30,24,20,12,6,-6,67,47,28,0.00,40.00,3,1,8,0.00
2013-11-23,34,24,19,16,12,-100,80,63,27,0.00,40.00,4,1,9,0.00
2013-11-24,47,31,24,22,18,13,71,58,35,0.00,40.00,2,0,6,0.00
2013-11-25,39,30,26,22,18,13,72,61,49,0.00,40.00,3,0,5,0.00
2013-11-26,38,31,27,24,22,19,75,68,56,0.00,40.00,2,0,4,0.00
2013-11-27,35,30,25,24,23,21,89,75,58,0.00,40.00,2,0,8,0.00
2013-11-28,41,32,26,28,26,22,88,76,59,0.00,40.00,3,1,5,0.00
2013-11-29,50,43,36,35,28,22,79,55,42,0.00,40.00,1,0,5,0.01
2013-11-30,49,43,39,37,28,-100,86,60,37,0.00,40.00,10,2,23,0.01
2013-12-1,48,44,39,45,43,34,98,95,80,0.00,40.00,14,9,45,3.36
2013-12-2,42,32,24,41,28,21,98,88,63,0.00,40.00,13,6,35,2.68
2013-12-3,28,21,15,22,16,6,95,83,65,0.00,40.00,5,2,15,0.01
2013-12-4,23,14,9,6,4,0,77,64,45,0.00,40.00,3,2,9,0.02
2013-12-5,21,12,7,10,3,-3,85,68,56,0.00,40.00,2,1,7,0.01
2013-12-6,11,9,6,7,5,2,85,84,81,0.00,40.00,8,4,19,0.00
2013-12-7,12,5,0,5,-1,-100,83,78,72,0.00,40.00,7,2,14,0.00
2013-12-8,20,11,2,15,6,-3,83,80,77,0.00,40.00,3,1,6,0.01
2013-12-9,33,24,14,23,18,10,92,80,66,0.00,40.00,3,1,9,0.11
2013-12-10,35,28,24,28,24,21,90,84,72,0.00,40.00,2,1,8,0.04
2013-12-11,36,28,25,25,23,22,90,81,64,0.00,40.00,2,0,7,0.10
2013-12-12,39,34,28,34,28,21,98,78,61,0.00,40.00,6,2,16,0.09
2013-12-13,44,37,33,37,34,32,98,90,71,0.00,40.00,3,1,14,0.07
2013-12-14,48,39,36,36,31,-100,89,75,53,0.00,40.00,4,1,7,0.01
2013-12-15,53,42,36,37,30,16,90,65,33,0.00,40.00,5,2,21,0.00
2013-12-16,56,44,36,36,27,17,90,55,30,0.00,40.00,3,1,10,0.00
2013-12-17,61,49,44,35,20,15,64,32,22,0.00,40.00,5,2,19,0.00
2013-12-18,47,38,29,35,28,23,84,69,54,0.00,40.00,6,3,19,0.00
2013-12-19,33,26,23,25,14,8,84,61,37,0.00,40.00,3,1,8,0.00
2013-12-20,44,36,25,38,28,6,91,73,39,0.00,40.00,15,8,31,0.22
2013-12-21,43,40,36,37,32,-100,92,76,65,0.00,40.00,13,4,31,0.02
2013-12-22,46,43,40,38,35,32,87,74,67,0.00,40.00,10,3,24,0.00
2013-12-23,47,42,30,44,34,24,90,74,52,0.00,40.00,16,6,37,0.16
2013-12-24,46,34,28,28,23,16,83,65,40,0.00,40.00,3,1,8,0.01
2013-12-25,41,37,30,31,26,16,74,65,46,0.00,40.00,1,0,5,0.00
2013-12-26,50,44,37,33,29,25,74,57,45,0.00,40.00,2,1,5,0.00
2013-12-27,49,43,40,37,28,25,84,56,38,0.00,40.00,6,2,22,0.00
2013-12-28,43,36,33,27,23,-100,74,61,45,0.00,40.00,3,1,8,0.00
2013-12-29,48,41,34,28,22,15,64,46,40,0.00,40.00,3,1,9,0.00
2013-12-30,56,46,42,38,34,22,74,64,42,0.00,40.00,6,2,18,0.00
2013-12-31,48,42,36,34,28,16,86,60,29,0.00,40.00,9,3,24,0.00
2014-1-1,47,39,35,36,31,26,91,75,61,0.00,40.00,2,1,5,0.00
2014-1-2,59,44,35,34,29,22,87,59,33,0.00,40.00,5,1,16,0.00